Time;durP1;ratioP1;P1;durP2;ratioP2;P2;SDS_P1;SDS_P2;PMS_P1;PMS_P2;Temp;Humidity;BMP_temperature;BMP_pressure;BME280_temperature;BME280_humidity;BME280_pressure;Samples;Min_cycle;Max_cycle;Signal;HPM_P1;HPM_P2
2023/05/24 00:00:21;;;;;;;;;;;;;;;;;;5091195;28;19912;-63
2023/05/24 00:04:59;;;;;;;;;;;;;;;;;;5111506;27;19916;-62
2023/05/24 00:09:22;;;;;;;;;;;;;;;;;;5112137;27;20390;-62
2023/05/24 00:11:48;;;;;;;;;;;;;;;;;;5111314;28;20003;-64
2023/05/24 00:15:02;;;;;;;;;;;;;;;;;;5111842;27;19916;-65
2023/05/24 00:17:29;;;;;;;;;;;;;;;;;;5111382;28;19912;-65
2023/05/24 00:19:55;;;;;;;;;;;;;;;;;;5111702;28;19915;-65
2023/05/24 00:22:21;;;;;;;;;;;;;;;;;;5111935;28;19915;-65
2023/05/24 00:24:47;;;;;;;;;;;;;;;;;;5111368;28;19908;-65
2023/05/24 00:27:12;;;;;;;;;;;;;;;;;;5111502;28;19908;-63
2023/05/24 00:30:56;;;;;;;;;;;;;;;;;;5111861;27;19916;-64
2023/05/24 00:33:22;;;;;;;;;;;;;;;;;;5110124;28;20026;-65
2023/05/24 00:35:48;;;;;;;;;;;;;;;;;;5111637;28;19915;-65
2023/05/24 00:38:14;;;;;;;;;;;;;;;;;;5111625;28;19908;-63
2023/05/24 00:40:40;;;;;;;;;;;;;;;;;;5111178;28;19915;-65
2023/05/24 00:43:06;;;;;;;;;;;;;;;;;;5111540;28;19911;-65
2023/05/24 00:45:32;;;;;;;;;;;;;;;;;;5111105;28;19908;-62
2023/05/24 00:47:58;;;;;;;;;;;;;;;;;;5111433;28;19958;-65
2023/05/24 00:50:23;;;;;;;;;;;;;;;;;;5111360;28;19922;-64
2023/05/24 00:52:49;;;;;;;;;;;;;;;;;;5111134;28;19908;-65
2023/05/24 00:55:15;;;;;;;;;;;;;;;;;;5111320;28;19919;-62
2023/05/24 00:57:41;;;;;;;;;;;;;;;;;;5110054;28;19908;-62
2023/05/24 01:00:08;;;;;;;;;;;;;;;;;;5110895;28;20007;-62
2023/05/24 01:02:34;;;;;;;;;;;;;;;;;;5111188;28;19947;-62
2023/05/24 01:05:00;;;;;;;;;;;;;;;;;;5111159;28;19931;-63
2023/05/24 01:07:26;;;;;;;;;;;;;;;;;;5110696;28;19912;-63
2023/05/24 01:09:52;;;;;;;;;;;;;;;;;;5111017;28;20015;-64
2023/05/24 01:12:18;;;;;;;;;;;;;;;;;;5110977;28;20003;-63
2023/05/24 01:14:44;;;;;;;;;;;;;;;;;;5110589;28;19908;-63
2023/05/24 01:17:10;;;;;;;;;;;;;;;;;;5109702;28;19908;-64
2023/05/24 01:19:36;;;;;;;;;;;;;;;;;;5109559;28;19916;-63
2023/05/24 01:22:02;;;;;;;;;;;;;;;;;;5110437;28;19908;-64
2023/05/24 01:24:28;;;;;;;;;;;;;;;;;;5110776;28;20010;-63
2023/05/24 01:26:54;;;;;;;;;;;;;;;;;;5110689;28;19915;-64
2023/05/24 01:29:20;;;;;;;;;;;;;;;;;;5110058;28;19920;-64
2023/05/24 01:31:46;;;;;;;;;;;;;;;;;;5110638;28;19931;-63
2023/05/24 01:34:12;;;;;;;;;;;;;;;;;;5110626;28;19908;-63
2023/05/24 01:36:38;;;;;;;;;;;;;;;;;;5110199;28;19996;-64
2023/05/24 01:39:04;;;;;;;;;;;;;;;;;;5110471;28;19908;-64
2023/05/24 01:41:30;;;;;;;;;;;;;;;;;;5099873;28;19916;-64
2023/05/24 01:43:56;;;;;;;;;;;;;;;;;;5096504;28;20291;-64
2023/05/24 01:46:22;;;;;;;;;;;;;;;;;;5096838;28;19912;-64
2023/05/24 01:48:48;;;;;;;;;;;;;;;;;;5096290;28;19916;-63
2023/05/24 01:51:14;;;;;;;;;;;;;;;;;;5095447;28;19912;-64
2023/05/24 01:53:40;;;;;;;;;;;;;;;;;;5096634;28;20344;-63
2023/05/24 01:56:06;;;;;;;;;;;;;;;;;;5096239;28;20024;-63
2023/05/24 01:58:32;;;;;;;;;;;;;;;;;;5096506;28;19911;-64
2023/05/24 02:00:58;;;;;;;;;;;;;;;;;;5097015;28;19908;-64
2023/05/24 02:03:24;;;;;;;;;;;;;;;;;;5096055;28;20292;-64
2023/05/24 02:05:49;;;;;;;;;;;;;;;;;;5096390;28;19991;-63
2023/05/24 02:08:15;;;;;;;;;;;;;;;;;;5096416;28;20424;-63
2023/05/24 02:10:41;;;;;;;;;;;;;;;;;;5096152;28;20368;-63
2023/05/24 02:13:07;;;;;;;;;;;;;;;;;;5095201;28;19909;-63
2023/05/24 02:15:34;;;;;;;;;;;;;;;;;;5094957;28;20364;-63
2023/05/24 02:18:00;;;;;;;;;;;;;;;;;;5095746;28;19916;-63
2023/05/24 02:20:27;;;;;;;;;;;;;;;;;;5096094;28;19959;-63
2023/05/24 02:22:53;;;;;;;;;;;;;;;;;;5096026;28;20424;-63
2023/05/24 02:25:19;;;;;;;;;;;;;;;;;;5094476;28;19955;-63
2023/05/24 02:27:46;;;;;;;;;;;;;;;;;;5094773;28;19908;-63
2023/05/24 02:30:12;;;;;;;;;;;;;;;;;;5094373;28;19924;-63
2023/05/24 02:32:38;;;;;;;;;;;;;;;;;;5095464;28;20285;-63
2023/05/24 02:35:04;;;;;;;;;;;;;;;;;;5095992;28;20017;-63
2023/05/24 02:37:30;;;;;;;;;;;;;;;;;;5095848;28;20010;-63
2023/05/24 02:39:56;;;;;;;;;;;;;;;;;;5095375;28;19955;-63
2023/05/24 02:42:22;;;;;;;;;;;;;;;;;;5095733;28;19908;-64
2023/05/24 02:44:51;;;;;;;;;;;;;;;;;;5095691;28;19915;-63
2023/05/24 02:47:17;;;;;;;;;;;;;;;;;;5095938;28;19908;-63
2023/05/24 02:49:43;;;;;;;;;;;;;;;;;;5095707;28;19927;-63
2023/05/24 02:52:09;;;;;;;;;;;;;;;;;;5094426;28;20381;-64
2023/05/24 02:54:35;;;;;;;;;;;;;;;;;;5095237;28;20321;-63
2023/05/24 02:57:02;;;;;;;;;;;;;;;;;;5094137;28;19908;-63
2023/05/24 02:59:28;;;;;;;;;;;;;;;;;;5094903;28;19915;-64
2023/05/24 03:01:54;;;;;;;;;;;;;;;;;;5095386;28;19908;-65
2023/05/24 03:04:20;;;;;;;;;;;;;;;;;;5095571;28;19999;-63
2023/05/24 03:06:46;;;;;;;;;;;;;;;;;;5094874;28;19912;-63
2023/05/24 03:09:12;;;;;;;;;;;;;;;;;;5095132;28;19923;-64
2023/05/24 03:11:38;;;;;;;;;;;;;;;;;;5095297;28;19908;-63
2023/05/24 03:14:05;;;;;;;;;;;;;;;;;;5094947;28;20325;-63
2023/05/24 03:16:31;;;;;;;;;;;;;;;;;;5095624;28;19908;-63
2023/05/24 03:18:58;;;;;;;;;;;;;;;;;;5095023;28;19952;-63
2023/05/24 03:21:25;;;;;;;;;;;;;;;;;;5094545;28;20367;-63
2023/05/24 03:23:51;;;;;;;;;;;;;;;;;;5094904;28;19995;-63
2023/05/24 03:26:17;;;;;;;;;;;;;;;;;;5094818;28;20320;-63
2023/05/24 03:28:44;;;;;;;;;;;;;;;;;;5094152;28;20303;-63
2023/05/24 03:31:10;;;;;;;;;;;;;;;;;;5095101;28;19916;-63
2023/05/24 03:33:36;;;;;;;;;;;;;;;;;;5094649;28;19915;-63
2023/05/24 03:36:03;;;;;;;;;;;;;;;;;;5094253;28;19908;-63
2023/05/24 03:38:30;;;;;;;;;;;;;;;;;;5094691;28;20329;-63
2023/05/24 03:40:55;;;;;;;;;;;;;;;;;;5094748;28;20413;-63
2023/05/24 03:43:21;;;;;;;;;;;;;;;;;;5094198;28;19908;-63
2023/05/24 03:45:47;;;;;;;;;;;;;;;;;;5093186;28;19908;-63
2023/05/24 03:48:14;;;;;;;;;;;;;;;;;;5094080;28;19977;-63
2023/05/24 03:50:39;;;;;;;;;;;;;;;;;;5093073;28;19935;-63
2023/05/24 05:19:04;;;;;;;;;;;;;;;;;;5131935;27;19920;-64
2023/05/24 05:21:33;;;;;;;;;;;;;;;;;;5131510;27;19969;-63
2023/05/24 05:23:59;;;;;;;;;;;;;;;;;;5132243;27;20241;-64
2023/05/24 05:26:25;;;;;;;;;;;;;;;;;;5131777;27;19912;-63
2023/05/24 05:28:53;;;;;;;;;;;;;;;;;;5131458;27;19958;-63
2023/05/24 05:34:09;;;;;;;;;;;;;;;;;;5111784;27;19922;-64
2023/05/24 05:36:39;;;;;;;;;;;;;;;;;;5110119;28;20337;-65
2023/05/24 05:42:25;;;;;;;;;;;;;;;;;;5111670;27;19916;-63
2023/05/24 05:44:51;;;;;;;;;;;;;;;;;;5110526;28;19934;-63
2023/05/24 05:47:17;;;;;;;;;;;;;;;;;;5110473;28;19954;-64
2023/05/24 05:52:46;;;;;;;;;;;;;;;;;;5112393;27;19916;-65
2023/05/24 05:55:12;;;;;;;;;;;;;;;;;;5111710;28;19999;-65
2023/05/24 05:59:45;;;;;;;;;;;;;;;;;;5132833;27;20379;-65
2023/05/24 06:03:32;;;;;;;;;;;;;;;;;;5091264;27;19923;-62
2023/05/24 06:05:58;;;;;;;;;;;;;;;;;;5090124;28;20006;-65
2023/05/24 06:08:25;;;;;;;;;;;;;;;;;;5091586;28;19984;-62
2023/05/24 06:11:45;;;;;;;;;;;;;;;;;;5091344;27;19919;-65
2023/05/24 06:15:24;;;;;;;;;;;;;;;;;;5112102;27;20383;-62
2023/05/24 06:17:51;;;;;;;;;;;;;;;;;;5111376;28;20003;-62
2023/05/24 06:20:17;;;;;;;;;;;;;;;;;;5111634;28;19908;-62
2023/05/24 06:22:44;;;;;;;;;;;;;;;;;;5111685;28;19954;-62
2023/05/24 06:28:14;;;;;;;;;;;;;;;;;;5111848;27;19922;-64
2023/05/24 06:30:40;;;;;;;;;;;;;;;;;;5111784;28;20002;-64
2023/05/24 06:33:06;;;;;;;;;;;;;;;;;;5110002;28;19912;-63
2023/05/24 06:35:32;;;;;;;;;;;;;;;;;;5111658;28;19953;-62
2023/05/24 06:38:28;;;;;;;;;;;;;;;;;;5112536;27;19916;-65
2023/05/24 06:40:54;;;;;;;;;;;;;;;;;;5112027;28;20006;-65
2023/05/24 06:43:20;;;;;;;;;;;;;;;;;;5111660;28;20391;-62
2023/05/24 06:45:46;;;;;;;;;;;;;;;;;;5111251;28;20368;-65
2023/05/24 06:48:12;;;;;;;;;;;;;;;;;;5110300;28;20371;-62
2023/05/24 06:50:38;;;;;;;;;;;;;;;;;;5110296;28;19916;-64
2023/05/24 06:59:49;;;;;;;;;;;;;;;;;;5091589;27;19916;-65
2023/05/24 07:05:01;;;;;;;;;;;;;;;;;;5112564;27;19922;-65
2023/05/24 07:07:27;;;;;;;;;;;;;;;;;;5111410;28;20011;-62
2023/05/24 07:14:13;;;;;;;;;;;;;;;;;;5132542;27;19912;-63
2023/05/24 07:16:39;;;;;;;;;;;;;;;;;;5132302;28;20010;-62
2023/05/24 07:19:05;;;;;;;;;;;;;;;;;;5132382;28;19953;-62
2023/05/24 07:21:31;;;;;;;;;;;;;;;;;;5131903;28;19951;-62
2023/05/24 07:31:38;;;;;;;;;;;;;;;;;;5112594;27;19916;-62
2023/05/24 07:38:37;;;;;;;;;;;;;;;;;;5092052;27;19912;-63
2023/05/24 07:44:29;;;;;;;;;;;;;;;;;;5112555;27;19915;-65
2023/05/24 07:48:47;;;;;;;;;;;;;;;;;;5071397;28;20368;-64
2023/05/24 07:53:22;;;;;;;;;;;;;;;;;;5112621;27;19922;-65
2023/05/24 07:58:07;;;;;;;;;;;;;;;;;;5111941;27;19938;-63
2023/05/24 08:00:34;;;;;;;;;;;;;;;;;;5111794;28;19918;-65
2023/05/24 08:05:08;;;;;;;;;;;;;;;;;;5111341;27;19916;-65
2023/05/24 08:07:34;;;;;;;;;;;;;;;;;;5110487;28;19916;-65
2023/05/24 08:10:00;;;;;;;;;;;;;;;;;;5111363;28;19915;-65
2023/05/24 08:14:11;;;;;;;;;;;;;;;;;;5112573;27;19922;-65
2023/05/24 08:17:01;;;;;;;;;;;;;;;;;;5071591;28;20360;-63
2023/05/24 08:19:27;;;;;;;;;;;;;;;;;;5069942;28;19974;-63
2023/05/24 08:21:54;;;;;;;;;;;;;;;;;;5071135;28;19909;-63
2023/05/24 08:26:10;;;;;;;;;;;;;;;;;;5090969;28;19912;-63
2023/05/24 08:28:36;;;;;;;;;;;;;;;;;;5091315;28;19952;-63
2023/05/24 08:31:03;;;;;;;;;;;;;;;;;;5090984;28;19916;-63
2023/05/24 08:35:40;;;;;;;;;;;;;;;;;;5112512;27;20286;-65
2023/05/24 08:38:06;;;;;;;;;;;;;;;;;;5111354;28;19944;-63
2023/05/24 08:40:32;;;;;;;;;;;;;;;;;;5111659;28;19909;-65
2023/05/24 08:46:11;;;;;;;;;;;;;;;;;;5152558;27;19917;-65
2023/05/24 08:48:37;;;;;;;;;;;;;;;;;;5153197;27;19915;-63
2023/05/24 08:51:03;;;;;;;;;;;;;;;;;;5152841;27;19930;-63
2023/05/24 08:55:01;;;;;;;;;;;;;;;;;;5071421;28;20277;-63
2023/05/24 08:57:29;;;;;;;;;;;;;;;;;;5071217;28;20391;-65
2023/05/24 08:59:55;;;;;;;;;;;;;;;;;;5071104;28;19909;-63
2023/05/24 09:02:21;;;;;;;;;;;;;;;;;;5071152;28;19919;-65
2023/05/24 09:04:47;;;;;;;;;;;;;;;;;;5071055;28;19999;-63
2023/05/24 09:07:13;;;;;;;;;;;;;;;;;;5070649;28;19967;-63
2023/05/24 09:10:05;;;;;;;;;;;;;;;;;;5112011;27;19923;-63
2023/05/24 09:13:13;;;;;;;;;;;;;;;;;;5111806;27;19916;-65
2023/05/24 09:17:48;;;;;;;;;;;;;;;;;;5092123;28;19922;-63
2023/05/24 09:27:41;;;;;;;;;;;;;;;;;;5111690;27;19918;-65
2023/05/24 09:30:48;;;;;;;;;;;;;;;;;;5112106;27;19922;-64
2023/05/24 09:36:01;;;;;;;;;;;;;;;;;;5111534;27;19934;-63
2023/05/24 09:38:27;;;;;;;;;;;;;;;;;;5112353;28;19998;-63
2023/05/24 09:40:53;;;;;;;;;;;;;;;;;;5111742;28;20325;-63
2023/05/24 09:43:19;;;;;;;;;;;;;;;;;;5109938;28;19999;-63
2023/05/24 09:51:40;;;;;;;;;;;;;;;;;;5111946;27;19916;-63
2023/05/24 09:55:07;;;;;;;;;;;;;;;;;;5112061;27;19920;-64
2023/05/24 09:59:04;;;;;;;;;;;;;;;;;;5112661;27;19912;-63
2023/05/24 10:01:32;;;;;;;;;;;;;;;;;;5110448;28;20348;-63
2023/05/24 10:04:01;;;;;;;;;;;;;;;;;;5111280;28;19915;-63
2023/05/24 10:07:50;;;;;;;;;;;;;;;;;;5152969;27;19919;-63
2023/05/24 10:10:16;;;;;;;;;;;;;;;;;;5152515;27;19911;-63
2023/05/24 10:12:45;;;;;;;;;;;;;;;;;;5152746;27;19933;-63
2023/05/24 10:15:48;;;;;;;;;;;;;;;;;;5112022;27;19916;-63
2023/05/24 10:20:24;;;;;;;;;;;;;;;;;;5112593;27;19922;-63
2023/05/24 10:23:45;;;;;;;;;;;;;;;;;;5111832;27;20291;-63
2023/05/24 10:26:10;;;;;;;;;;;;;;;;;;5112163;28;20435;-63
2023/05/24 10:28:36;;;;;;;;;;;;;;;;;;5111681;28;19951;-63
2023/05/24 10:31:57;;;;;;;;;;;;;;;;;;5090955;27;19920;-63
2023/05/24 10:34:23;;;;;;;;;;;;;;;;;;5091346;28;20023;-63
2023/05/24 10:36:49;;;;;;;;;;;;;;;;;;5091336;28;19912;-63
2023/05/24 10:39:15;;;;;;;;;;;;;;;;;;5090924;28;19908;-63
2023/05/24 10:41:41;;;;;;;;;;;;;;;;;;5091287;28;19957;-63
2023/05/24 10:44:07;;;;;;;;;;;;;;;;;;5089924;28;19978;-65
2023/05/24 10:46:32;;;;;;;;;;;;;;;;;;5090641;28;19908;-63
2023/05/24 10:48:59;;;;;;;;;;;;;;;;;;5091097;28;19909;-63
2023/05/24 10:51:25;;;;;;;;;;;;;;;;;;5090899;28;19960;-63
2023/05/24 10:53:51;;;;;;;;;;;;;;;;;;5090677;28;19947;-63
2023/05/24 10:56:19;;;;;;;;;;;;;;;;;;5090999;28;19920;-62
2023/05/24 10:58:45;;;;;;;;;;;;;;;;;;5090622;28;19909;-63
2023/05/24 11:01:12;;;;;;;;;;;;;;;;;;5089607;28;19915;-63
2023/05/24 11:03:37;;;;;;;;;;;;;;;;;;5089672;28;20359;-65
2023/05/24 11:06:03;;;;;;;;;;;;;;;;;;5090648;28;19912;-65
2023/05/24 11:08:30;;;;;;;;;;;;;;;;;;5090765;28;20006;-65
2023/05/24 11:10:56;;;;;;;;;;;;;;;;;;5090654;28;20010;-65
2023/05/24 11:13:22;;;;;;;;;;;;;;;;;;5088961;28;20015;-65
2023/05/24 11:15:48;;;;;;;;;;;;;;;;;;5089316;28;19909;-65
2023/05/24 11:18:15;;;;;;;;;;;;;;;;;;5089266;28;19908;-65
2023/05/24 11:20:41;;;;;;;;;;;;;;;;;;5088862;28;19909;-64
2023/05/24 11:23:08;;;;;;;;;;;;;;;;;;5090486;28;19981;-63
2023/05/24 11:25:36;;;;;;;;;;;;;;;;;;5089075;28;19915;-65
2023/05/24 11:30:29;;;;;;;;;;;;;;;;;;5112333;27;20291;-63
2023/05/24 11:32:55;;;;;;;;;;;;;;;;;;5112215;28;19943;-63
2023/05/24 11:35:26;;;;;;;;;;;;;;;;;;5111382;28;19933;-64
2023/05/24 11:37:52;;;;;;;;;;;;;;;;;;5111968;28;19908;-64
2023/05/24 11:40:19;;;;;;;;;;;;;;;;;;5111548;28;20286;-64
2023/05/24 11:42:45;;;;;;;;;;;;;;;;;;5111159;28;19958;-64
2023/05/24 11:45:12;;;;;;;;;;;;;;;;;;5110144;28;20279;-64
2023/05/24 11:47:38;;;;;;;;;;;;;;;;;;5111519;28;19912;-64
2023/05/24 11:50:05;;;;;;;;;;;;;;;;;;5110843;28;19923;-64
2023/05/24 11:52:31;;;;;;;;;;;;;;;;;;5111371;28;20297;-64
2023/05/24 11:54:57;;;;;;;;;;;;;;;;;;5111069;28;19908;-64
2023/05/24 11:57:23;;;;;;;;;;;;;;;;;;5111191;28;19995;-64
2023/05/24 11:59:49;;;;;;;;;;;;;;;;;;5111319;28;19912;-64
2023/05/24 12:02:15;;;;;;;;;;;;;;;;;;5110865;28;19908;-64
2023/05/24 12:04:41;;;;;;;;;;;;;;;;;;5111092;28;19908;-64
2023/05/24 12:07:07;;;;;;;;;;;;;;;;;;5111055;28;20273;-64
2023/05/24 12:09:33;;;;;;;;;;;;;;;;;;5110523;28;19916;-64
2023/05/24 12:12:00;;;;;;;;;;;;;;;;;;5110925;28;19912;-64
2023/05/24 12:14:26;;;;;;;;;;;;;;;;;;5110027;28;19908;-64
2023/05/24 12:16:52;;;;;;;;;;;;;;;;;;5109245;28;19908;-64
2023/05/24 12:19:18;;;;;;;;;;;;;;;;;;5110828;28;20260;-64
2023/05/24 12:21:44;;;;;;;;;;;;;;;;;;5110755;28;19977;-64
2023/05/24 12:24:10;;;;;;;;;;;;;;;;;;5110510;28;19908;-64
2023/05/24 12:26:36;;;;;;;;;;;;;;;;;;5110761;28;19908;-64
2023/05/24 12:29:02;;;;;;;;;;;;;;;;;;5110389;28;19927;-63
2023/05/24 12:31:28;;;;;;;;;;;;;;;;;;5110334;28;19912;-63
2023/05/24 12:33:54;;;;;;;;;;;;;;;;;;5109248;28;19908;-64
2023/05/24 12:36:20;;;;;;;;;;;;;;;;;;5110527;28;19995;-64
2023/05/24 12:38:47;;;;;;;;;;;;;;;;;;5110138;28;19908;-64
2023/05/24 12:41:13;;;;;;;;;;;;;;;;;;5100175;28;19987;-64
2023/05/24 12:43:39;;;;;;;;;;;;;;;;;;5096804;28;19947;-64
2023/05/24 12:46:05;;;;;;;;;;;;;;;;;;5096410;28;20379;-64
2023/05/24 12:48:31;;;;;;;;;;;;;;;;;;5096682;28;20011;-64
2023/05/24 12:52:51;;;;;;;;;;;;;;;;;;5152635;27;20353;-64
2023/05/24 12:55:17;;;;;;;;;;;;;;;;;;5134480;27;19912;-63
2023/05/24 12:57:43;;;;;;;;;;;;;;;;;;5152919;27;19914;-63
2023/05/24 13:00:09;;;;;;;;;;;;;;;;;;5152407;27;19907;-64
2023/05/24 13:02:35;;;;;;;;;;;;;;;;;;5152697;27;20290;-64
2023/05/24 13:05:02;;;;;;;;;;;;;;;;;;5152756;27;19994;-64
2023/05/24 13:07:28;;;;;;;;;;;;;;;;;;5152255;27;20355;-64
2023/05/24 13:12:21;;;;;;;;;;;;;;;;;;5111983;27;19916;-63
2023/05/24 13:14:47;;;;;;;;;;;;;;;;;;5112110;28;20363;-63
2023/05/24 13:17:14;;;;;;;;;;;;;;;;;;5111679;28;19974;-63
2023/05/24 13:19:40;;;;;;;;;;;;;;;;;;5111212;28;20284;-63
2023/05/24 13:22:06;;;;;;;;;;;;;;;;;;5111640;28;19913;-64
2023/05/24 13:24:32;;;;;;;;;;;;;;;;;;5111576;28;19948;-63
2023/05/24 13:26:58;;;;;;;;;;;;;;;;;;5111192;28;19942;-63
2023/05/24 13:29:25;;;;;;;;;;;;;;;;;;5111448;28;19909;-63
2023/05/24 13:31:51;;;;;;;;;;;;;;;;;;5111298;28;20379;-64
2023/05/24 13:34:17;;;;;;;;;;;;;;;;;;5111068;28;19950;-64
2023/05/24 13:36:43;;;;;;;;;;;;;;;;;;5111292;28;19908;-63
2023/05/24 13:39:09;;;;;;;;;;;;;;;;;;5111907;28;20367;-64
2023/05/24 13:41:35;;;;;;;;;;;;;;;;;;5110759;28;20379;-64
2023/05/24 13:44:01;;;;;;;;;;;;;;;;;;5111222;28;19990;-64
2023/05/24 13:46:27;;;;;;;;;;;;;;;;;;5111128;28;19951;-64
2023/05/24 13:48:53;;;;;;;;;;;;;;;;;;5109568;28;19954;-64
2023/05/24 13:51:21;;;;;;;;;;;;;;;;;;5110895;28;19916;-64
2023/05/24 13:53:47;;;;;;;;;;;;;;;;;;5110966;28;19908;-64
2023/05/24 13:56:13;;;;;;;;;;;;;;;;;;5109290;28;19915;-64
2023/05/24 13:58:39;;;;;;;;;;;;;;;;;;5110935;28;20287;-64
2023/05/24 14:01:05;;;;;;;;;;;;;;;;;;5111032;28;19908;-64
2023/05/24 14:03:31;;;;;;;;;;;;;;;;;;5110399;28;19956;-64
2023/05/24 14:05:57;;;;;;;;;;;;;;;;;;5111104;28;19952;-64
2023/05/24 14:08:23;;;;;;;;;;;;;;;;;;5110934;28;19915;-63
2023/05/24 14:10:49;;;;;;;;;;;;;;;;;;5108903;28;19920;-63
2023/05/24 14:13:14;;;;;;;;;;;;;;;;;;5110639;28;19922;-64
2023/05/24 14:15:40;;;;;;;;;;;;;;;;;;5110271;28;19923;-63
2023/05/24 14:18:06;;;;;;;;;;;;;;;;;;5110564;28;19961;-64
2023/05/24 14:20:32;;;;;;;;;;;;;;;;;;5110503;28;20331;-64
2023/05/24 14:22:58;;;;;;;;;;;;;;;;;;5100510;28;19994;-64
2023/05/24 14:26:31;;;;;;;;;;;;;;;;;;5091482;28;19923;-65
2023/05/24 14:28:57;;;;;;;;;;;;;;;;;;5091435;28;20011;-66
2023/05/24 14:31:23;;;;;;;;;;;;;;;;;;5090953;28;19908;-64
2023/05/24 14:33:49;;;;;;;;;;;;;;;;;;5091341;28;19974;-63
2023/05/24 14:36:15;;;;;;;;;;;;;;;;;;5090022;28;19909;-64
2023/05/24 14:38:41;;;;;;;;;;;;;;;;;;5090786;28;19957;-64
2023/05/24 14:41:08;;;;;;;;;;;;;;;;;;5091151;28;19915;-63
2023/05/24 14:43:36;;;;;;;;;;;;;;;;;;5091102;28;20276;-64
2023/05/24 14:46:02;;;;;;;;;;;;;;;;;;5090611;28;19917;-65
2023/05/24 14:48:28;;;;;;;;;;;;;;;;;;5091028;28;19915;-65
2023/05/24 14:50:54;;;;;;;;;;;;;;;;;;5089441;28;20013;-65
2023/05/24 14:53:20;;;;;;;;;;;;;;;;;;5089640;28;19909;-65
2023/05/24 14:55:46;;;;;;;;;;;;;;;;;;5090937;28;19934;-65
2023/05/24 14:58:12;;;;;;;;;;;;;;;;;;5090411;28;20007;-65
2023/05/24 15:00:38;;;;;;;;;;;;;;;;;;5089483;28;20350;-64
2023/05/24 15:03:07;;;;;;;;;;;;;;;;;;5090642;28;19996;-65
2023/05/24 15:05:33;;;;;;;;;;;;;;;;;;5090161;28;19916;-63
2023/05/24 15:07:59;;;;;;;;;;;;;;;;;;5090519;28;19915;-64
2023/05/24 15:10:25;;;;;;;;;;;;;;;;;;5090617;28;20287;-65
2023/05/24 15:12:51;;;;;;;;;;;;;;;;;;5090338;28;19999;-64
2023/05/24 15:15:17;;;;;;;;;;;;;;;;;;5090563;28;19915;-65
2023/05/24 15:17:43;;;;;;;;;;;;;;;;;;5090367;28;19991;-65
2023/05/24 15:20:09;;;;;;;;;;;;;;;;;;5089929;28;20415;-64
2023/05/24 15:22:35;;;;;;;;;;;;;;;;;;5090428;28;19955;-65
2023/05/24 15:25:01;;;;;;;;;;;;;;;;;;5088717;28;19968;-65
2023/05/24 15:27:27;;;;;;;;;;;;;;;;;;5089812;28;19954;-64
2023/05/24 15:29:57;;;;;;;;;;;;;;;;;;5090100;28;19909;-64
2023/05/24 15:32:23;;;;;;;;;;;;;;;;;;5090189;28;19908;-65
2023/05/24 15:34:49;;;;;;;;;;;;;;;;;;5088479;28;20276;-65
2023/05/24 15:37:18;;;;;;;;;;;;;;;;;;5079915;28;19908;-65
2023/05/24 15:39:44;;;;;;;;;;;;;;;;;;5076481;28;20374;-63
2023/05/24 15:42:10;;;;;;;;;;;;;;;;;;5076105;28;19908;-65
2023/05/24 15:44:36;;;;;;;;;;;;;;;;;;5076357;28;19919;-64
2023/05/24 15:47:02;;;;;;;;;;;;;;;;;;5075958;28;19912;-64
2023/05/24 15:49:28;;;;;;;;;;;;;;;;;;5076488;28;19909;-63
2023/05/24 15:51:54;;;;;;;;;;;;;;;;;;5076231;28;19916;-64
2023/05/24 15:54:20;;;;;;;;;;;;;;;;;;5074664;28;19909;-64
2023/05/24 15:56:48;;;;;;;;;;;;;;;;;;5076137;28;19931;-64
2023/05/24 15:59:14;;;;;;;;;;;;;;;;;;5076134;28;19909;-64
2023/05/24 16:01:40;;;;;;;;;;;;;;;;;;5075696;28;19909;-64
2023/05/24 16:06:03;;;;;;;;;;;;;;;;;;5071662;28;19916;-65
2023/05/24 16:10:27;;;;;;;;;;;;;;;;;;5091328;27;19917;-63
2023/05/24 16:12:53;;;;;;;;;;;;;;;;;;5091262;28;19966;-63
2023/05/24 16:15:19;;;;;;;;;;;;;;;;;;5091234;28;19916;-63
2023/05/24 16:17:45;;;;;;;;;;;;;;;;;;5091201;28;19954;-63
2023/05/24 16:20:11;;;;;;;;;;;;;;;;;;5091153;28;19909;-64
2023/05/24 16:22:38;;;;;;;;;;;;;;;;;;5090822;28;19908;-63
2023/05/24 16:25:04;;;;;;;;;;;;;;;;;;5091051;28;20345;-63
2023/05/24 16:27:30;;;;;;;;;;;;;;;;;;5091096;28;19974;-63
2023/05/24 16:29:56;;;;;;;;;;;;;;;;;;5089453;28;19916;-62
2023/05/24 16:32:22;;;;;;;;;;;;;;;;;;5091015;28;19999;-63
2023/05/24 16:34:48;;;;;;;;;;;;;;;;;;5090943;28;19932;-64
2023/05/24 16:37:14;;;;;;;;;;;;;;;;;;5090664;28;19912;-66
2023/05/24 16:39:40;;;;;;;;;;;;;;;;;;5090896;28;19999;-63
2023/05/24 16:42:06;;;;;;;;;;;;;;;;;;5090844;28;19908;-63
2023/05/24 16:44:32;;;;;;;;;;;;;;;;;;5090628;28;19908;-66
2023/05/24 16:46:58;;;;;;;;;;;;;;;;;;5090830;28;19954;-63
2023/05/24 16:51:44;;;;;;;;;;;;;;;;;;5111742;27;19916;-66
2023/05/24 16:54:10;;;;;;;;;;;;;;;;;;5111766;28;20423;-65
2023/05/24 16:56:36;;;;;;;;;;;;;;;;;;5111679;28;19908;-64
2023/05/24 17:06:33;;;;;;;;;;;;;;;;;;5111505;27;19916;-64
2023/05/24 17:08:59;;;;;;;;;;;;;;;;;;5111668;28;19919;-64
2023/05/24 17:12:00;;;;;;;;;;;;;;;;;;5111338;27;20290;-63
2023/05/24 17:14:26;;;;;;;;;;;;;;;;;;5110405;28;19918;-63
2023/05/24 17:18:05;;;;;;;;;;;;;;;;;;5152948;27;19923;-64
2023/05/24 17:20:31;;;;;;;;;;;;;;;;;;5152597;27;19915;-63
2023/05/24 17:22:57;;;;;;;;;;;;;;;;;;5153237;27;20321;-64
2023/05/24 17:25:23;;;;;;;;;;;;;;;;;;5152900;27;20278;-63
2023/05/24 17:27:49;;;;;;;;;;;;;;;;;;5152491;27;20319;-63
2023/05/24 17:30:15;;;;;;;;;;;;;;;;;;5152693;27;20259;-63
2023/05/24 17:34:33;;;;;;;;;;;;;;;;;;5111393;27;19912;-63
2023/05/24 17:36:59;;;;;;;;;;;;;;;;;;5111771;28;19999;-66
2023/05/24 17:39:25;;;;;;;;;;;;;;;;;;5110451;28;19917;-66
2023/05/24 17:44:17;;;;;;;;;;;;;;;;;;5111969;27;20398;-63
2023/05/24 17:47:57;;;;;;;;;;;;;;;;;;5090969;27;19935;-64
2023/05/24 17:52:13;;;;;;;;;;;;;;;;;;5091980;27;20410;-64
2023/05/24 17:54:39;;;;;;;;;;;;;;;;;;5090928;28;20378;-65
2023/05/24 17:57:06;;;;;;;;;;;;;;;;;;5091375;28;19908;-64
2023/05/24 17:59:32;;;;;;;;;;;;;;;;;;5090009;28;19912;-64
2023/05/24 18:01:58;;;;;;;;;;;;;;;;;;5090817;28;20391;-64
2023/05/24 18:05:37;;;;;;;;;;;;;;;;;;5153063;27;20270;-65
2023/05/24 18:10:29;;;;;;;;;;;;;;;;;;5153266;27;19940;-65
2023/05/24 18:20:25;;;;;;;;;;;;;;;;;;5111881;27;19938;-64
2023/05/24 18:22:51;;;;;;;;;;;;;;;;;;5110174;28;19978;-64
2023/05/24 18:25:17;;;;;;;;;;;;;;;;;;5111639;28;19908;-64
2023/05/24 18:32:19;;;;;;;;;;;;;;;;;;5071918;27;20288;-66
2023/05/24 18:34:45;;;;;;;;;;;;;;;;;;5071170;28;19940;-65
2023/05/24 18:37:11;;;;;;;;;;;;;;;;;;5069374;28;19916;-63
2023/05/24 18:39:48;;;;;;;;;;;;;;;;;;5112602;27;20271;-65
2023/05/24 18:42:14;;;;;;;;;;;;;;;;;;5110483;28;20002;-65
2023/05/24 18:44:40;;;;;;;;;;;;;;;;;;5111248;28;20364;-65
2023/05/24 18:49:11;;;;;;;;;;;;;;;;;;5112357;27;19916;-65
2023/05/24 18:54:56;;;;;;;;;;;;;;;;;;5112066;27;19916;-65
2023/05/24 18:58:49;;;;;;;;;;;;;;;;;;5152607;27;20010;-65
2023/05/24 19:01:15;;;;;;;;;;;;;;;;;;5153006;27;19911;-65
2023/05/24 19:03:41;;;;;;;;;;;;;;;;;;5152994;27;19960;-65
2023/05/24 19:06:07;;;;;;;;;;;;;;;;;;5152539;27;19912;-64
2023/05/24 19:11:43;;;;;;;;;;;;;;;;;;5111642;27;19916;-65
2023/05/24 19:14:09;;;;;;;;;;;;;;;;;;5111689;28;19948;-63
2023/05/24 19:16:35;;;;;;;;;;;;;;;;;;5111910;28;19915;-64
2023/05/24 19:19:01;;;;;;;;;;;;;;;;;;5111231;28;19908;-64
2023/05/24 19:21:27;;;;;;;;;;;;;;;;;;5111630;28;19954;-65
2023/05/24 19:23:53;;;;;;;;;;;;;;;;;;5111559;28;20006;-65
2023/05/24 19:28:30;;;;;;;;;;;;;;;;;;5112496;27;19916;-65
2023/05/24 19:34:23;;;;;;;;;;;;;;;;;;5111785;27;20376;-63
2023/05/24 19:36:49;;;;;;;;;;;;;;;;;;5112033;28;19919;-63
2023/05/24 19:39:15;;;;;;;;;;;;;;;;;;5111289;28;19908;-63
2023/05/24 19:45:46;;;;;;;;;;;;;;;;;;5112301;27;20413;-65
2023/05/24 19:48:12;;;;;;;;;;;;;;;;;;5111440;28;19912;-65
2023/05/24 19:50:39;;;;;;;;;;;;;;;;;;5111696;28;19934;-65
2023/05/24 19:55:10;;;;;;;;;;;;;;;;;;5111405;27;19916;-65
2023/05/24 19:57:36;;;;;;;;;;;;;;;;;;5110496;28;19999;-65
2023/05/24 20:00:02;;;;;;;;;;;;;;;;;;5111694;28;19961;-65
2023/05/24 20:04:47;;;;;;;;;;;;;;;;;;5153309;27;19939;-66
2023/05/24 20:10:05;;;;;;;;;;;;;;;;;;5112710;27;19912;-63
2023/05/24 20:12:33;;;;;;;;;;;;;;;;;;5111809;28;19934;-65
2023/05/24 20:14:59;;;;;;;;;;;;;;;;;;5111264;28;19908;-65
2023/05/24 20:17:25;;;;;;;;;;;;;;;;;;5111677;28;19908;-65
2023/05/24 20:21:46;;;;;;;;;;;;;;;;;;5152975;27;19922;-65
2023/05/24 20:24:34;;;;;;;;;;;;;;;;;;5111780;27;19916;-65
2023/05/24 20:27:01;;;;;;;;;;;;;;;;;;5110441;28;20299;-65
2023/05/24 20:29:27;;;;;;;;;;;;;;;;;;5111369;28;20326;-65
2023/05/24 20:34:17;;;;;;;;;;;;;;;;;;5153574;27;20282;-65
2023/05/24 20:36:43;;;;;;;;;;;;;;;;;;5152592;27;20374;-65
2023/05/24 20:42:44;;;;;;;;;;;;;;;;;;5112027;27;19916;-66
2023/05/24 20:45:10;;;;;;;;;;;;;;;;;;5111644;28;20007;-65
2023/05/24 20:52:30;;;;;;;;;;;;;;;;;;5112551;27;19923;-64
2023/05/24 20:54:55;;;;;;;;;;;;;;;;;;5112352;28;19995;-65
2023/05/24 20:57:21;;;;;;;;;;;;;;;;;;5109989;28;19954;-65
2023/05/24 20:59:47;;;;;;;;;;;;;;;;;;5111638;28;19908;-65
2023/05/24 21:03:46;;;;;;;;;;;;;;;;;;5071232;28;20295;-65
2023/05/24 21:06:12;;;;;;;;;;;;;;;;;;5069922;28;20003;-65
2023/05/24 21:12:35;;;;;;;;;;;;;;;;;;5091122;27;20277;-65
2023/05/24 21:16:08;;;;;;;;;;;;;;;;;;5112633;27;19931;-63
2023/05/24 21:19:40;;;;;;;;;;;;;;;;;;5090875;27;19918;-63